Time;durP1;ratioP1;P1;durP2;ratioP2;P2;SDS_P1;SDS_P2;PMS_P1;PMS_P2;Temp;Humidity;BMP_temperature;BMP_pressure;BME280_temperature;BME280_humidity;BME280_pressure;Samples;Min_cycle;Max_cycle;Signal;HPM_P1;HPM_P2
2021/08/22 00:00:37;;;;;;;0.38;0.38;;;18.40;99.90;;;;;;5090334;28;20674;-71
2021/08/22 00:03:03;;;;;;;1.17;1.08;;;18.40;99.90;;;;;;5090582;28;20218;-71
2021/08/22 00:05:29;;;;;;;0.70;0.70;;;18.40;99.90;;;;;;5071370;28;20200;-71
2021/08/22 00:07:54;;;;;;;0.55;0.55;;;18.40;99.90;;;;;;5089738;28;20168;-71
2021/08/22 00:10:21;;;;;;;0.43;0.43;;;18.40;99.90;;;;;;5090084;28;20214;-72
2021/08/22 00:12:48;;;;;;;0.52;0.52;;;18.30;99.90;;;;;;5090216;28;20156;-72
2021/08/22 00:15:14;;;;;;;0.80;0.70;;;18.30;99.90;;;;;;5071583;28;20253;-72
2021/08/22 00:17:40;;;;;;;0.50;0.50;;;18.20;99.90;;;;;;5089748;28;20202;-72
2021/08/22 00:20:08;;;;;;;1.35;1.30;;;18.10;99.90;;;;;;5072157;28;20176;-72
2021/08/22 00:22:35;;;;;;;11.38;1.33;;;18.10;99.90;;;;;;5072099;28;20184;-73
2021/08/22 00:25:02;;;;;;;1.55;1.38;;;18.00;99.90;;;;;;5090060;28;20164;-73
2021/08/22 00:27:28;;;;;;;1.33;1.27;;;18.00;99.90;;;;;;5090036;28;20196;-73
2021/08/22 00:29:54;;;;;;;0.73;0.52;;;18.10;99.90;;;;;;5089994;28;20159;-73
2021/08/22 00:32:19;;;;;;;0.73;0.73;;;18.10;99.90;;;;;;5071623;28;20175;-73
2021/08/22 00:34:46;;;;;;;0.65;0.65;;;18.10;99.90;;;;;;5071883;28;20368;-73
2021/08/22 00:37:12;;;;;;;0.77;0.73;;;18.20;99.90;;;;;;5071819;28;20192;-73
2021/08/22 00:39:37;;;;;;;2.10;1.48;;;18.20;99.90;;;;;;5071598;28;20175;-73
2021/08/22 00:42:04;;;;;;;1.05;1.05;;;18.20;99.90;;;;;;5089817;28;20165;-73
2021/08/22 00:44:29;;;;;;;0.50;0.50;;;18.10;99.90;;;;;;5089237;28;20175;-73
2021/08/22 00:46:57;;;;;;;1.30;0.90;;;18.10;99.90;;;;;;5089518;28;20721;-73
2021/08/22 00:49:29;;;;;;;1.35;1.25;;;18.10;99.90;;;;;;5081005;28;20223;-74
2021/08/22 00:51:55;;;;;;;2.40;0.98;;;18.00;99.90;;;;;;5092165;28;20179;-74
2021/08/22 00:54:21;;;;;;;1.80;1.10;;;18.30;99.90;;;;;;5109895;28;20236;-73
2021/08/22 00:56:48;;;;;;;0.82;0.70;;;18.30;99.90;;;;;;5109786;28;20187;-72
2021/08/22 00:59:18;;;;;;;3.78;0.88;;;18.10;99.90;;;;;;5108542;28;20318;-72
2021/08/22 01:01:48;;;;;;;0.82;0.82;;;18.00;99.90;;;;;;5109145;28;20155;-72
2021/08/22 01:04:20;;;;;;;2.50;1.00;;;17.90;99.90;;;;;;5091135;28;20191;-72
2021/08/22 01:07:16;;;;;;;1.27;0.70;;;18.10;99.90;;;;;;5109405;28;20156;-72
2021/08/22 01:09:47;;;;;;;0.95;0.60;;;18.30;99.90;;;;;;5109282;28;20251;-71
2021/08/22 01:12:40;;;;;;;1.20;1.20;;;18.50;99.90;;;;;;5109171;28;20159;-72
2021/08/22 01:15:10;;;;;;;0.88;0.73;;;18.70;99.90;;;;;;5109060;28;20186;-72
2021/08/22 01:17:41;;;;;;;1.70;0.98;;;18.90;99.90;;;;;;5109046;28;20164;-73
2021/08/22 01:20:08;;;;;;;0.28;0.28;;;19.00;99.90;;;;;;5090666;28;20258;-72
2021/08/22 01:22:37;;;;;;;1.30;1.00;;;18.80;99.90;;;;;;5109324;28;20182;-72
2021/08/22 01:25:04;;;;;;;1.48;1.38;;;18.60;99.90;;;;;;5090528;28;20174;-73
2021/08/22 01:27:32;;;;;;;1.08;1.00;;;18.30;99.90;;;;;;5090898;28;20167;-72
2021/08/22 01:30:03;;;;;;;1.35;1.25;;;18.20;99.90;;;;;;5108834;28;20250;-72
2021/08/22 01:32:40;;;;;;;0.45;0.45;;;18.00;99.90;;;;;;5109209;28;20182;-73
2021/08/22 01:35:08;;;;;;;4.10;1.50;;;17.90;99.90;;;;;;5109079;28;20187;-72
2021/08/22 01:37:37;;;;;;;1.67;1.48;;;18.00;99.90;;;;;;5109047;28;20166;-72
2021/08/22 01:40:06;;;;;;;1.10;1.05;;;18.10;99.90;;;;;;5108934;28;20187;-72
2021/08/22 01:42:35;;;;;;;1.20;1.10;;;18.20;99.90;;;;;;5108921;28;20180;-72
2021/08/22 01:45:13;;;;;;;1.23;1.17;;;18.40;99.90;;;;;;5090625;28;20169;-72
2021/08/22 01:47:46;;;;;;;2.67;0.80;;;18.20;99.90;;;;;;5090561;28;20186;-72
2021/08/22 01:50:15;;;;;;;0.95;0.88;;;18.00;99.90;;;;;;5108742;28;20225;-72
2021/08/22 01:52:41;;;;;;;0.50;0.50;;;17.80;99.90;;;;;;5108834;28;20167;-72
2021/08/22 01:55:08;;;;;;;4.25;0.85;;;17.80;99.90;;;;;;5108296;28;20190;-73
2021/08/22 01:57:38;;;;;;;1.25;0.98;;;18.00;99.90;;;;;;5107863;28;20235;-73
2021/08/22 02:00:06;;;;;;;2.88;1.05;;;18.10;99.90;;;;;;5108516;28;20194;-72
2021/08/22 02:02:31;;;;;;;2.47;1.35;;;18.10;99.90;;;;;;5108596;28;20190;-72
2021/08/22 02:05:04;;;;;;;0.90;0.88;;;18.10;99.90;;;;;;5090280;28;20163;-73
2021/08/22 02:07:32;;;;;;;1.35;1.20;;;18.20;99.90;;;;;;5090463;28;20510;-73
2021/08/22 02:10:08;;;;;;;1.38;1.25;;;18.20;99.90;;;;;;5108548;28;20305;-72
2021/08/22 02:12:35;;;;;;;2.65;1.02;;;18.10;99.90;;;;;;5090385;28;20167;-73
2021/08/22 02:15:07;;;;;;;1.02;1.02;;;18.20;99.90;;;;;;5108486;28;20238;-73
2021/08/22 02:17:53;;;;;;;1.27;1.17;;;18.40;99.90;;;;;;5090178;28;20159;-73
2021/08/22 02:20:20;;;;;;;0.93;0.93;;;18.40;99.90;;;;;;5108430;28;20210;-73
2021/08/22 02:22:47;;;;;;;0.28;0.28;;;18.30;99.90;;;;;;5090180;28;20156;-73
2021/08/22 02:25:14;;;;;;;0.30;0.30;;;18.40;99.90;;;;;;5108370;28;20234;-73
2021/08/22 02:27:43;;;;;;;0.38;0.35;;;18.40;99.90;;;;;;5108337;28;20216;-73
2021/08/22 02:30:10;;;;;;;0.28;0.28;;;18.50;99.90;;;;;;5108166;28;20195;-73
2021/08/22 02:32:36;;;;;;;0.60;0.60;;;18.50;99.90;;;;;;5090085;28;20174;-72
2021/08/22 02:35:03;;;;;;;0.30;0.17;;;18.30;99.90;;;;;;5089946;28;20191;-73
2021/08/22 02:37:29;;;;;;;1.45;0.90;;;18.20;99.90;;;;;;5108260;28;20163;-72
2021/08/22 02:39:56;;;;;;;0.88;0.88;;;18.20;99.90;;;;;;5108115;28;20191;-72
2021/08/22 02:42:22;;;;;;;1.17;1.13;;;17.70;99.90;;;;;;5108471;28;20155;-72
2021/08/22 02:44:48;;;;;;;0.57;0.50;;;17.50;99.90;;;;;;5089881;28;20227;-72
2021/08/22 02:47:15;;;;;;;0.80;0.80;;;17.50;99.90;;;;;;5107916;28;20159;-73
2021/08/22 02:49:42;;;;;;;0.98;0.98;;;17.90;99.90;;;;;;5107819;28;20679;-73
2021/08/22 02:52:09;;;;;;;0.70;0.70;;;18.00;99.90;;;;;;5108175;28;20166;-74
2021/08/22 02:54:35;;;;;;;0.25;0.25;;;17.90;99.90;;;;;;5107961;28;20346;-73
2021/08/22 02:57:01;;;;;;;0.65;0.20;;;17.70;99.90;;;;;;5089662;28;20156;-73
2021/08/22 02:59:27;;;;;;;0.63;0.63;;;17.40;99.90;;;;;;5107960;28;20191;-73
2021/08/22 03:01:53;;;;;;;1.63;1.52;;;17.20;99.90;;;;;;5108001;28;20175;-73
2021/08/22 03:04:19;;;;;;;1.25;1.20;;;17.30;99.90;;;;;;5107836;28;20483;-71
2021/08/22 03:06:45;;;;;;;0.95;0.55;;;17.20;99.90;;;;;;5089459;28;20160;-71
2021/08/22 03:09:12;;;;;;;0.82;0.82;;;17.20;99.90;;;;;;5111724;28;20202;-72
2021/08/22 03:11:38;;;;;;;0.30;0.30;;;17.20;99.90;;;;;;5093361;28;20190;-72
2021/08/22 03:14:05;;;;;;;3.65;1.58;;;17.20;99.90;;;;;;5111672;28;20163;-72
2021/08/22 03:16:31;;;;;;;2.40;1.50;;;17.10;99.90;;;;;;5111858;28;20155;-72
2021/08/22 03:18:57;;;;;;;0.43;0.43;;;17.10;99.90;;;;;;5111627;28;20191;-73
2021/08/22 03:21:23;;;;;;;0.73;0.73;;;17.10;99.90;;;;;;5111491;28;20151;-74
2021/08/22 03:23:49;;;;;;;0.85;0.85;;;17.10;99.90;;;;;;5111584;28;20573;-72
2021/08/22 03:26:15;;;;;;;1.05;1.00;;;17.10;99.90;;;;;;5093334;28;20256;-74
2021/08/22 03:28:42;;;;;;;1.65;0.95;;;17.10;99.90;;;;;;5111378;28;20198;-72
2021/08/22 03:31:08;;;;;;;0.80;0.60;;;17.10;99.90;;;;;;5111529;28;20160;-72
2021/08/22 03:33:34;;;;;;;0.35;0.32;;;17.10;99.90;;;;;;5111414;28;20163;-74
2021/08/22 03:36:00;;;;;;;2.33;1.10;;;17.00;99.90;;;;;;5092884;28;20188;-74
2021/08/22 03:38:26;;;;;;;0.90;0.90;;;16.90;99.90;;;;;;5092838;28;20191;-73
2021/08/22 03:40:52;;;;;;;1.02;0.50;;;17.00;99.90;;;;;;5111224;28;20170;-72
2021/08/22 03:43:18;;;;;;;3.13;0.45;;;16.90;99.90;;;;;;5111247;28;20163;-72
2021/08/22 03:45:44;;;;;;;1.40;1.30;;;16.90;99.90;;;;;;5111157;28;20179;-73
2021/08/22 03:48:10;;;;;;;1.42;0.82;;;16.90;99.90;;;;;;5111039;28;20187;-74
2021/08/22 03:50:35;;;;;;;1.77;1.67;;;17.00;99.90;;;;;;5110920;28;20215;-72
2021/08/22 03:53:01;;;;;;;0.70;0.70;;;17.00;99.90;;;;;;5111280;28;20163;-76
2021/08/22 03:55:27;;;;;;;1.02;1.02;;;17.10;99.90;;;;;;5092422;28;20199;-73
2021/08/22 03:57:53;;;;;;;0.80;0.80;;;17.10;99.90;;;;;;5092644;28;20530;-72
2021/08/22 04:00:19;;;;;;;1.05;0.90;;;17.10;99.90;;;;;;5110735;28;20290;-72
2021/08/22 04:02:45;;;;;;;1.65;1.42;;;17.10;99.90;;;;;;5110929;28;20160;-72
2021/08/22 04:05:12;;;;;;;0.88;0.88;;;17.30;99.90;;;;;;5092565;28;20198;-73
2021/08/22 04:07:45;;;;;;;1.55;0.77;;;17.30;99.90;;;;;;5092356;28;20172;-74
2021/08/22 04:10:11;;;;;;;1.15;1.15;;;17.50;99.90;;;;;;5110630;28;20156;-73
2021/08/22 04:12:38;;;;;;;1.05;1.00;;;17.60;99.90;;;;;;5110776;28;20191;-75
2021/08/22 04:15:04;;;;;;;3.42;1.30;;;17.50;99.90;;;;;;5092226;28;20294;-73
2021/08/22 04:17:30;;;;;;;0.30;0.30;;;17.30;99.90;;;;;;5110599;28;20160;-73
2021/08/22 04:19:56;;;;;;;1.52;1.42;;;17.20;99.90;;;;;;5109434;28;20236;-73
2021/08/22 04:22:22;;;;;;;0.73;0.57;;;17.20;99.90;;;;;;5110329;28;20491;-73
2021/08/22 04:24:48;;;;;;;0.60;0.60;;;17.50;99.90;;;;;;5091939;28;20199;-73
2021/08/22 04:27:14;;;;;;;4.28;3.38;;;17.70;99.90;;;;;;5110437;28;20166;-73
2021/08/22 04:29:40;;;;;;;0.85;0.63;;;17.70;99.90;;;;;;5110254;28;20152;-73
2021/08/22 04:32:07;;;;;;;5.63;1.48;;;17.90;99.90;;;;;;5092059;28;20235;-72
2021/08/22 04:34:33;;;;;;;1.27;1.17;;;17.90;99.90;;;;;;5110204;28;20198;-72
2021/08/22 04:36:59;;;;;;;0.60;0.60;;;18.10;99.90;;;;;;5110219;28;20166;-72
2021/08/22 04:39:25;;;;;;;0.68;0.68;;;18.10;99.90;;;;;;5110223;28;20179;-72
2021/08/22 04:41:51;;;;;;;0.80;0.80;;;18.30;99.90;;;;;;5110064;28;20156;-72
2021/08/22 04:44:18;;;;;;;0.45;0.45;;;18.30;99.90;;;;;;5110071;28;20603;-72
2021/08/22 04:46:46;;;;;;;0.55;0.30;;;18.20;99.90;;;;;;5091772;28;20170;-72
2021/08/22 04:49:12;;;;;;;1.23;0.88;;;18.40;99.90;;;;;;5102219;28;20232;-72
2021/08/22 04:51:38;;;;;;;2.17;1.20;;;18.70;99.90;;;;;;5071355;28;20641;-73
2021/08/22 04:54:04;;;;;;;0.50;0.50;;;18.80;99.90;;;;;;5071311;28;20196;-73
2021/08/22 04:56:30;;;;;;;7.82;0.50;;;19.00;99.90;;;;;;5089650;28;20218;-74
2021/08/22 04:58:56;;;;;;;1.17;1.17;;;19.20;99.90;;;;;;5089342;28;20171;-72
2021/08/22 05:01:22;;;;;;;0.80;0.80;;;19.20;99.90;;;;;;5089355;28;20180;-72
2021/08/22 05:03:48;;;;;;;2.35;0.90;;;19.10;99.90;;;;;;5089237;28;20277;-72
2021/08/22 05:06:14;;;;;;;0.82;0.82;;;19.00;99.90;;;;;;5089475;28;20164;-72
2021/08/22 05:08:40;;;;;;;1.67;1.27;;;18.90;99.90;;;;;;5071057;28;20251;-72
2021/08/22 05:11:06;;;;;;;1.17;1.05;;;18.70;99.90;;;;;;5071168;28;20160;-72
2021/08/22 05:13:37;;;;;;;1.10;0.77;;;18.60;99.90;;;;;;5071112;28;20542;-74
2021/08/22 05:16:05;;;;;;;1.75;1.63;;;18.60;99.90;;;;;;5089021;28;20194;-71
2021/08/22 05:18:32;;;;;;;2.25;1.63;;;18.60;99.90;;;;;;5089052;28;20152;-73
2021/08/22 05:20:59;;;;;;;0.38;0.38;;;18.60;99.90;;;;;;5088981;28;20157;-75
2021/08/22 05:23:24;;;;;;;1.17;0.82;;;18.60;99.90;;;;;;5089135;28;20160;-71
2021/08/22 05:25:50;;;;;;;1.45;1.38;;;18.70;99.90;;;;;;5070803;28;20198;-71
2021/08/22 05:28:16;;;;;;;1.17;0.77;;;18.70;99.90;;;;;;5088876;28;20207;-72
2021/08/22 05:30:45;;;;;;;0.65;0.65;;;18.90;99.90;;;;;;5088631;28;20160;-74
2021/08/22 05:33:11;;;;;;;1.38;1.02;;;19.30;99.90;;;;;;5070891;28;20171;-72
2021/08/22 05:35:37;;;;;;;1.10;0.88;;;19.90;99.90;;;;;;5088711;28;20204;-72
2021/08/22 05:38:07;;;;;;;3.08;1.20;;;20.50;99.90;;;;;;5088688;28;20151;-72
2021/08/22 05:40:34;;;;;;;2.05;1.85;;;20.90;99.90;;;;;;5088514;28;20160;-73
2021/08/22 05:43:00;;;;;;;5.30;1.70;;;21.50;99.90;;;;;;5070668;28;20168;-72
2021/08/22 05:45:27;;;;;;;2.15;1.45;;;22.00;99.90;;;;;;5088674;28;20195;-72
2021/08/22 05:47:52;;;;;;;0.80;0.80;;;22.70;99.90;;;;;;5088758;28;20224;-73
2021/08/22 05:50:18;;;;;;;1.00;1.00;;;23.20;99.90;;;;;;5105561;28;20215;-74
2021/08/22 05:52:44;;;;;;;1.13;1.10;;;23.30;99.90;;;;;;5109040;28;20162;-74
2021/08/22 05:55:11;;;;;;;1.48;1.15;;;23.50;99.90;;;;;;5090557;28;20203;-74
2021/08/22 05:57:37;;;;;;;2.22;1.42;;;23.50;99.90;;;;;;5109088;28;20182;-76
2021/08/22 06:00:07;;;;;;;0.60;0.60;;;23.60;99.90;;;;;;5090846;28;20175;-73
2021/08/22 06:02:36;;;;;;;1.02;0.98;;;24.00;99.90;;;;;;5090856;28;20159;-74
2021/08/22 06:05:06;;;;;;;0.82;0.75;;;24.60;99.90;;;;;;5108768;28;20246;-74
2021/08/22 06:07:32;;;;;;;1.33;1.23;;;24.80;99.90;;;;;;5108698;28;20151;-74
2021/08/22 06:09:59;;;;;;;3.72;1.30;;;25.00;99.90;;;;;;5108674;28;20159;-74
2021/08/22 06:12:26;;;;;;;3.28;0.77;;;25.30;99.90;;;;;;5108650;28;20204;-74
2021/08/22 06:14:52;;;;;;;0.82;0.82;;;25.40;99.90;;;;;;5090298;28;20690;-75
2021/08/22 06:17:17;;;;;;;1.70;0.98;;;25.70;99.90;;;;;;5108658;28;20155;-75
2021/08/22 06:19:44;;;;;;;1.65;1.10;;;25.90;99.90;;;;;;5108344;28;20162;-75
2021/08/22 06:22:10;;;;;;;4.13;1.83;;;25.50;99.90;;;;;;5090399;28;20184;-76
2021/08/22 06:24:36;;;;;;;0.85;0.77;;;25.70;99.90;;;;;;5108590;28;20198;-74
2021/08/22 06:27:03;;;;;;;1.38;0.63;;;26.00;99.90;;;;;;5108395;28;20170;-74
2021/08/22 06:29:29;;;;;;;1.00;0.93;;;26.60;99.90;;;;;;5108285;28;20189;-75
2021/08/22 06:31:54;;;;;;;1.13;0.80;;;26.40;99.90;;;;;;5090101;28;20166;-75
2021/08/22 06:34:23;;;;;;;1.77;1.48;;;26.50;99.90;;;;;;5089760;28;20202;-74
2021/08/22 06:36:49;;;;;;;0.90;0.90;;;25.40;99.90;;;;;;5108204;28;20150;-76
2021/08/22 06:39:15;;;;;;;1.73;1.42;;;24.90;99.90;;;;;;5108082;28;20531;-75
2021/08/22 06:41:41;;;;;;;1.17;0.63;;;25.30;99.90;;;;;;5108185;28;20246;-75
2021/08/22 06:44:07;;;;;;;5.22;0.98;;;26.60;99.90;;;;;;5093741;28;20193;-76
2021/08/22 06:46:33;;;;;;;2.53;0.98;;;27.20;99.90;;;;;;5112143;28;20147;-76
2021/08/22 06:48:59;;;;;;;2.95;1.65;;;27.10;99.90;;;;;;5111990;28;20218;-76
2021/08/22 06:51:25;;;;;;;0.57;0.55;;;27.70;99.90;;;;;;5112163;28;20190;-76
2021/08/22 06:53:51;;;;;;;0.82;0.82;;;28.10;99.90;;;;;;5093691;28;20198;-76
2021/08/22 06:56:17;;;;;;;6.65;1.48;;;27.80;99.90;;;;;;5112010;28;20626;-77
2021/08/22 06:58:42;;;;;;;2.42;1.35;;;27.80;99.90;;;;;;5111985;28;20158;-76
2021/08/22 07:01:09;;;;;;;1.02;0.93;;;28.00;99.90;;;;;;5093562;28;20171;-76
2021/08/22 07:03:35;;;;;;;6.85;1.98;;;27.00;99.90;;;;;;5111888;28;20147;-75
2021/08/22 07:06:01;;;;;;;1.40;1.20;;;27.10;99.90;;;;;;5111845;28;20173;-75
2021/08/22 07:08:27;;;;;;;1.08;1.00;;;26.10;99.90;;;;;;5111821;28;20227;-75
2021/08/22 07:10:53;;;;;;;3.95;2.05;;;26.60;99.90;;;;;;5111847;28;20222;-75
2021/08/22 07:13:19;;;;;;;2.58;1.27;;;27.50;99.90;;;;;;5111861;28;20170;-75
2021/08/22 07:15:44;;;;;;;2.20;1.35;;;28.30;99.90;;;;;;5092510;28;20233;-75
2021/08/22 07:18:10;;;;;;;1.02;0.82;;;28.00;99.90;;;;;;5110420;28;20183;-74
2021/08/22 07:20:36;;;;;;;2.97;2.05;;;28.90;99.90;;;;;;5111672;28;20159;-73
2021/08/22 07:23:02;;;;;;;4.75;1.88;;;29.10;99.90;;;;;;5111525;28;20155;-74
2021/08/22 07:25:28;;;;;;;0.63;0.57;;;29.00;99.90;;;;;;5111432;28;20167;-75
2021/08/22 07:27:54;;;;;;;1.60;1.50;;;29.10;99.90;;;;;;5092390;28;20220;-75
2021/08/22 07:30:21;;;;;;;1.15;1.05;;;28.90;99.90;;;;;;5111212;28;20187;-74
2021/08/22 07:32:47;;;;;;;2.05;1.27;;;29.30;99.90;;;;;;5111477;28;20170;-76
2021/08/22 07:35:13;;;;;;;1.45;1.33;;;28.90;99.90;;;;;;5092777;28;20209;-74
2021/08/22 07:37:39;;;;;;;3.10;1.42;;;29.00;99.90;;;;;;5109784;28;20201;-75
2021/08/22 07:40:05;;;;;;;0.93;0.85;;;29.30;99.90;;;;;;5110268;28;20242;-74
2021/08/22 07:42:31;;;;;;;1.17;0.77;;;28.70;99.90;;;;;;5111100;28;20147;-74
2021/08/22 07:44:57;;;;;;;1.27;1.17;;;28.50;99.90;;;;;;5109692;28;20202;-73
2021/08/22 07:47:23;;;;;;;1.27;1.27;;;28.60;99.90;;;;;;5110406;28;20189;-74
2021/08/22 07:49:49;;;;;;;1.25;1.20;;;28.60;99.90;;;;;;5109016;28;20249;-77
2021/08/22 07:52:15;;;;;;;2.05;1.13;;;28.50;99.90;;;;;;5109354;28;20814;-76
2021/08/22 07:54:40;;;;;;;1.25;1.15;;;28.50;99.90;;;;;;5113063;28;20211;-75
2021/08/22 07:57:06;;;;;;;0.98;0.98;;;28.40;99.90;;;;;;5121386;28;20194;-73
2021/08/22 07:59:33;;;;;;;1.63;1.45;;;26.80;99.90;;;;;;5090884;28;20196;-74
2021/08/22 08:01:59;;;;;;;1.52;0.60;;;27.30;99.90;;;;;;5111307;28;20220;-75
2021/08/22 08:04:24;;;;;;;2.78;1.25;;;28.60;99.90;;;;;;5112454;28;20270;-74
2021/08/22 08:06:50;;;;;;;1.30;1.02;;;29.00;99.90;;;;;;5092260;28;20636;-73
2021/08/22 08:09:16;;;;;;;3.25;1.58;;;29.40;99.90;;;;;;5091699;28;20173;-75
2021/08/22 08:11:42;;;;;;;0.77;0.75;;;27.90;99.90;;;;;;5094387;28;20201;-75
2021/08/22 08:14:08;;;;;;;0.80;0.80;;;27.20;99.90;;;;;;5106959;28;20217;-75
2021/08/22 08:16:34;;;;;;;1.17;1.00;;;28.60;99.90;;;;;;5116075;28;20204;-75
2021/08/22 08:19:00;;;;;;;2.15;1.42;;;28.20;99.90;;;;;;5130571;28;20146;-74
2021/08/22 08:21:26;;;;;;;2.22;0.98;;;28.10;99.90;;;;;;5130568;28;20166;-74
2021/08/22 08:23:52;;;;;;;0.88;0.88;;;28.60;99.90;;;;;;5124884;28;20247;-75
2021/08/22 08:26:18;;;;;;;1.40;1.30;;;29.30;99.90;;;;;;5091706;28;20170;-74
2021/08/22 08:28:44;;;;;;;0.77;0.77;;;30.10;99.90;;;;;;5110407;28;20163;-74
2021/08/22 08:31:10;;;;;;;1.52;1.42;;;30.90;99.90;;;;;;5109488;28;20190;-74
2021/08/22 08:33:37;;;;;;;0.73;0.73;;;30.50;99.90;;;;;;5105034;28;20333;-76
2021/08/22 08:36:03;;;;;;;1.08;0.98;;;29.60;99.90;;;;;;5130460;28;20572;-74
2021/08/22 08:38:29;;;;;;;1.52;1.20;;;29.50;99.90;;;;;;5130585;28;20153;-74
2021/08/22 08:40:55;;;;;;;4.10;1.30;;;29.60;99.90;;;;;;5129741;28;20188;-74
2021/08/22 08:43:24;;;;;;;3.33;0.77;;;29.70;99.90;;;;;;5111829;28;20186;-73
2021/08/22 08:46:08;;;;;;;1.25;0.90;;;29.80;99.90;;;;;;5130452;28;20653;-74
2021/08/22 08:48:41;;;;;;;2.33;1.77;;;30.50;99.90;;;;;;5130065;28;20170;-74
2021/08/22 08:51:29;;;;;;;1.30;1.20;;;30.30;99.90;;;;;;5129731;28;20185;-75
2021/08/22 08:54:28;;;;;;;1.75;1.13;;;30.20;99.90;;;;;;5130337;28;20162;-73
2021/08/22 08:56:59;;;;;;;1.15;1.10;;;30.50;99.90;;;;;;5111476;28;20677;-74
2021/08/22 08:59:25;;;;;;;0.63;0.63;;;30.50;99.90;;;;;;5130162;28;20247;-74
2021/08/22 09:01:52;;;;;;;2.75;1.73;;;30.90;99.90;;;;;;5129622;28;20260;-76
2021/08/22 09:04:28;;;;;;;0.88;0.80;;;31.30;99.90;;;;;;5128895;28;20188;-74
2021/08/22 09:07:32;;;;;;;1.85;1.38;;;31.80;99.90;;;;;;5109966;28;20165;-74
2021/08/22 09:10:23;;;;;;;2.08;1.33;;;31.70;99.90;;;;;;5129761;28;20168;-74
2021/08/22 09:13:26;;;;;;;1.70;0.82;;;31.30;99.90;;;;;;5111006;28;20217;-75
2021/08/22 09:16:45;;;;;;;1.38;1.27;;;30.30;99.90;;;;;;5111179;28;20205;-74
2021/08/22 09:19:37;;;;;;;2.03;1.17;;;30.50;99.90;;;;;;5026872;28;20192;-74
2021/08/22 09:22:40;;;;;;;2.95;2.10;;;30.60;99.90;;;;;;5106459;28;20203;-74
2021/08/22 09:25:40;;;;;;;1.30;1.25;;;30.00;99.90;;;;;;5090887;28;20178;-73
2021/08/22 09:28:42;;;;;;;3.42;1.15;;;30.00;99.90;;;;;;5090593;28;20178;-73
2021/08/22 09:32:04;;;;;;;0.95;0.60;;;29.80;99.90;;;;;;5108259;28;20202;-74
2021/08/22 09:35:07;;;;;;;0.73;0.73;;;30.20;99.90;;;;;;4990514;28;20170;-74
2021/08/22 09:38:10;;;;;;;1.23;1.08;;;30.20;99.90;;;;;;4990580;28;20173;-74
2021/08/22 09:40:36;;;;;;;3.33;1.00;;;30.10;99.90;;;;;;5108745;28;20170;-73
2021/08/22 09:43:05;;;;;;;1.25;1.15;;;29.90;99.90;;;;;;5108701;28;20510;-73
2021/08/22 09:46:02;;;;;;;0.90;0.82;;;30.20;99.90;;;;;;5108679;28;20181;-73
2021/08/22 09:48:38;;;;;;;2.00;1.10;;;29.50;99.90;;;;;;5100552;28;20769;-73
2021/08/22 09:51:04;;;;;;;2.50;1.23;;;29.70;99.90;;;;;;5108758;28;20245;-74
2021/08/22 09:53:41;;;;;;;0.77;0.77;;;29.20;99.90;;;;;;5108703;28;20235;-74
2021/08/22 09:56:45;;;;;;;1.40;1.30;;;28.50;99.90;;;;;;5108716;28;20190;-74
2021/08/22 09:59:11;;;;;;;1.52;1.42;;;28.30;99.90;;;;;;5090585;28;20182;-73
2021/08/22 10:01:50;;;;;;;0.13;0.13;;;27.80;99.90;;;;;;5090206;28;20254;-73
2021/08/22 10:04:47;;;;;;;0.82;0.82;;;27.00;99.90;;;;;;5108536;28;20174;-77
2021/08/22 10:07:37;;;;;;;2.25;0.98;;;27.20;99.90;;;;;;5090384;28;20301;-75
2021/08/22 10:10:15;;;;;;;1.65;0.50;;;26.90;99.90;;;;;;5108591;28;20178;-74
2021/08/22 10:12:42;;;;;;;1.73;1.13;;;27.50;99.90;;;;;;5108444;28;20612;-74
2021/08/22 10:15:10;;;;;;;2.33;0.68;;;28.80;99.90;;;;;;5108172;28;20189;-75
2021/08/22 10:17:36;;;;;;;1.80;1.15;;;29.70;99.90;;;;;;5089447;28;20173;-75
2021/08/22 10:20:03;;;;;;;2.22;1.15;;;30.20;99.90;;;;;;5108430;28;20226;-74
2021/08/22 10:22:29;;;;;;;1.23;1.13;;;30.90;99.90;;;;;;5108480;28;20186;-75
2021/08/22 10:24:58;;;;;;;2.35;1.30;;;31.40;99.90;;;;;;5108649;28;20177;-74
2021/08/22 10:27:33;;;;;;;0.63;0.50;;;31.60;99.90;;;;;;5090299;28;20170;-73
2021/08/22 10:30:02;;;;;;;0.93;0.80;;;32.50;99.90;;;;;;5108184;28;20178;-74
2021/08/22 10:32:33;;;;;;;4.78;0.98;;;30.70;99.90;;;;;;5108341;28;20191;-75
2021/08/22 10:35:10;;;;;;;1.35;1.25;;;30.30;99.90;;;;;;5108341;28;20182;-75
2021/08/22 10:37:38;;;;;;;1.05;1.05;;;30.30;99.90;;;;;;5090151;28;20173;-74
2021/08/22 10:40:23;;;;;;;2.17;1.98;;;31.10;99.90;;;;;;5108429;28;20154;-74
2021/08/22 10:43:09;;;;;;;0.57;0.57;;;32.10;99.90;;;;;;5090122;28;20187;-74
2021/08/22 10:45:51;;;;;;;3.70;1.40;;;31.30;99.90;;;;;;5090757;28;20210;-73
2021/08/22 10:48:23;;;;;;;3.08;1.13;;;31.40;99.90;;;;;;5090046;28;20253;-74
2021/08/22 10:50:58;;;;;;;0.40;0.40;;;31.50;99.90;;;;;;5108159;28;20248;-75
2021/08/22 10:53:29;;;;;;;1.25;1.15;;;32.10;99.90;;;;;;5108237;28;20277;-74
2021/08/22 10:55:56;;;;;;;1.60;1.50;;;32.30;99.90;;;;;;5108283;28;20195;-74
2021/08/22 10:59:04;;;;;;;0.70;0.68;;;33.50;99.90;;;;;;5090168;28;20171;-74
2021/08/22 11:01:32;;;;;;;1.17;1.02;;;33.60;99.90;;;;;;5088043;28;20206;-74
2021/08/22 11:04:08;;;;;;;5.32;1.02;;;32.50;99.90;;;;;;5107805;28;20246;-74
2021/08/22 11:06:36;;;;;;;3.00;1.20;;;31.80;99.90;;;;;;5108165;28;20151;-74
2021/08/22 11:09:03;;;;;;;0.65;0.65;;;31.80;99.90;;;;;;5108010;28;20188;-74
2021/08/22 11:11:30;;;;;;;1.10;0.90;;;31.60;99.90;;;;;;5089671;28;20179;-75
2021/08/22 11:13:58;;;;;;;0.77;0.77;;;32.10;99.90;;;;;;5089453;28;20199;-74
2021/08/22 11:16:45;;;;;;;0.82;0.75;;;31.70;99.90;;;;;;5107923;28;20182;-71
2021/08/22 11:19:12;;;;;;;0.63;0.63;;;32.20;99.90;;;;;;5107965;28;20155;-72
2021/08/22 11:21:39;;;;;;;1.52;0.77;;;33.20;99.90;;;;;;5089709;28;20167;-72
2021/08/22 11:24:05;;;;;;;1.08;0.95;;;33.80;99.90;;;;;;5089642;28;20190;-73
2021/08/22 11:26:31;;;;;;;1.02;0.73;;;33.30;99.90;;;;;;5089778;28;20194;-74
2021/08/22 11:28:59;;;;;;;0.65;0.43;;;33.10;99.90;;;;;;5109526;28;20189;-72
2021/08/22 11:31:29;;;;;;;1.52;0.70;;;32.40;99.90;;;;;;5111788;28;20158;-72
2021/08/22 11:33:57;;;;;;;0.77;0.77;;;33.10;99.90;;;;;;5111568;28;20254;-72
2021/08/22 11:36:29;;;;;;;0.77;0.75;;;32.10;99.90;;;;;;5111488;28;20207;-72
2021/08/22 11:39:16;;;;;;;1.15;0.93;;;31.50;99.90;;;;;;5093137;28;20173;-73
2021/08/22 11:41:48;;;;;;;0.75;0.75;;;30.10;99.90;;;;;;5111565;28;20148;-72
2021/08/22 11:44:22;;;;;;;0.75;0.75;;;29.90;99.90;;;;;;5111360;28;20151;-72
2021/08/22 11:46:51;;;;;;;0.55;0.55;;;30.30;99.90;;;;;;5111331;28;20175;-73
2021/08/22 11:49:18;;;;;;;0.65;0.65;;;30.70;99.90;;;;;;5092778;28;20217;-72
2021/08/22 11:51:51;;;;;;;1.08;0.55;;;29.80;99.90;;;;;;5111333;28;20647;-73
2021/08/22 11:54:19;;;;;;;3.17;1.13;;;30.00;99.90;;;;;;5092712;28;20170;-74
2021/08/22 11:56:45;;;;;;;0.85;0.57;;;30.40;99.90;;;;;;5111258;28;20238;-72
2021/08/22 11:59:28;;;;;;;0.68;0.68;;;30.30;99.90;;;;;;5111007;28;20154;-72
2021/08/22 12:02:32;;;;;;;1.55;0.90;;;30.70;99.90;;;;;;5120819;28;20197;-71
2021/08/22 12:05:17;;;;;;;0.90;0.90;;;31.50;99.90;;;;;;5027298;28;20249;-74
2021/08/22 12:07:45;;;;;;;1.55;0.98;;;31.30;99.90;;;;;;5027185;28;20188;-71
2021/08/22 12:10:26;;;;;;;1.15;0.75;;;31.90;99.90;;;;;;5011912;28;20197;-73
2021/08/22 12:12:55;;;;;;;0.75;0.75;;;30.20;99.90;;;;;;5028461;28;20197;-74
2021/08/22 12:15:38;;;;;;;1.40;1.27;;;30.70;99.90;;;;;;5011836;28;20201;-72
2021/08/22 12:18:28;;;;;;;0.70;0.52;;;30.70;99.90;;;;;;5028338;28;20184;-73
2021/08/22 12:21:16;;;;;;;0.80;0.80;;;30.10;99.90;;;;;;5011759;28;20172;-72
2021/08/22 12:23:44;;;;;;;1.00;0.95;;;30.20;99.90;;;;;;5028310;28;20173;-73
2021/08/22 12:26:26;;;;;;;1.10;1.08;;;30.20;99.90;;;;;;5011720;28;20180;-74
2021/08/22 12:28:54;;;;;;;0.98;0.80;;;30.00;99.90;;;;;;5028103;28;20242;-73
2021/08/22 12:31:20;;;;;;;1.42;0.95;;;30.40;99.90;;;;;;5011551;28;20197;-73
2021/08/22 12:33:53;;;;;;;0.47;0.47;;;30.40;99.90;;;;;;5011610;28;20174;-72
2021/08/22 12:36:30;;;;;;;3.13;0.80;;;29.60;99.90;;;;;;5105834;28;20217;-74
2021/08/22 12:38:58;;;;;;;1.38;1.27;;;29.20;99.90;;;;;;5130761;28;20150;-73
2021/08/22 12:41:27;;;;;;;0.98;0.50;;;29.30;99.90;;;;;;5111345;28;20192;-73
2021/08/22 12:43:55;;;;;;;1.83;0.68;;;29.30;99.90;;;;;;5112302;28;20238;-73
2021/08/22 12:46:25;;;;;;;1.40;1.02;;;29.00;99.90;;;;;;5130657;28;20184;-73
2021/08/22 12:48:52;;;;;;;0.47;0.47;;;28.90;99.90;;;;;;5130634;28;20170;-73
2021/08/22 12:51:20;;;;;;;0.30;0.30;;;29.00;99.90;;;;;;5130251;28;20208;-74
2021/08/22 12:53:47;;;;;;;2.28;1.05;;;29.10;99.90;;;;;;5130373;28;20163;-74
2021/08/22 12:56:12;;;;;;;1.58;1.20;;;29.10;99.90;;;;;;5130313;28;20190;-72
2021/08/22 12:58:38;;;;;;;0.77;0.65;;;29.00;99.90;;;;;;5130311;28;20161;-72
2021/08/22 13:01:04;;;;;;;2.03;1.00;;;29.00;99.90;;;;;;5130259;28;20186;-73
2021/08/22 13:03:30;;;;;;;1.40;1.30;;;29.30;99.90;;;;;;5130449;28;20188;-72